ITT6032 ZBAD-ZYTL
Flight info
| Callsign | ITT6032 |
|---|---|
| Flight time | 0h 52m |
| Altitude | 35100 |
| Route | MUGLO4K MUGLO W34 ANRAT W575 INTIV INT07A |
| Aircraft | A359/H-SDE2E3GHIJ1J3J4J5LM1ORWXY/LB1D1 |
Departure
| Time | 2026-04-17 11:07 |
|---|---|
| Airport | Beijing Daxing International Airport (ZBAD) |
Arrival
| Time | 2026-04-17 11:59 |
|---|---|
| Airport | Dalian Zhoushuizi International Airport (ZYTL) |
| Time | Latitude | Longitude | Altitude | Speed | Heading |
|---|---|---|---|---|---|
| 2026-04-17 11:07 | 39.34986 | 116.65791 | 10973 ft | 348 kts | 92° |
| 2026-04-17 11:07 | 39.34800 | 116.68948 | 11398 ft | 356 kts | 92° |
| 2026-04-17 11:07 | 39.34610 | 116.72158 | 11912 ft | 361 kts | 92° |
| 2026-04-17 11:07 | 39.34482 | 116.74311 | 12270 ft | 364 kts | 92° |
| 2026-04-17 11:08 | 39.34288 | 116.77587 | 12818 ft | 368 kts | 92° |
| 2026-04-17 11:08 | 39.34055 | 116.81987 | 13523 ft | 373 kts | 88° |
| 2026-04-17 11:08 | 39.33783 | 116.85325 | 13990 ft | 379 kts | 105° |
| 2026-04-17 11:08 | 39.32559 | 116.88338 | 14554 ft | 381 kts | 129° |
| 2026-04-17 11:09 | 39.30538 | 116.90518 | 15096 ft | 380 kts | 153° |
| 2026-04-17 11:09 | 39.28882 | 116.91349 | 15440 ft | 378 kts | 169° |
| 2026-04-17 11:09 | 39.26278 | 116.91526 | 15951 ft | 375 kts | 189° |
| 2026-04-17 11:10 | 39.21009 | 116.91599 | 16958 ft | 386 kts | 173° |
| 2026-04-17 11:10 | 39.18367 | 116.92311 | 17460 ft | 390 kts | 167° |
| 2026-04-17 11:10 | 39.15750 | 116.93286 | 17978 ft | 393 kts | 164° |
| 2026-04-17 11:10 | 39.13114 | 116.94247 | 18437 ft | 394 kts | 169° |
| 2026-04-17 11:11 | 39.10558 | 116.95561 | 18806 ft | 401 kts | 148° |
| 2026-04-17 11:11 | 39.08505 | 116.97983 | 19203 ft | 403 kts | 126° |
| 2026-04-17 11:11 | 39.07239 | 117.01178 | 19603 ft | 402 kts | 104° |
| 2026-04-17 11:11 | 39.06923 | 117.04721 | 20014 ft | 398 kts | 82° |
| 2026-04-17 11:12 | 39.07589 | 117.08133 | 20425 ft | 392 kts | 61° |
| 2026-04-17 11:12 | 39.08915 | 117.11121 | 20848 ft | 391 kts | 56° |
| 2026-04-17 11:12 | 39.09890 | 117.13837 | 21212 ft | 398 kts | 66° |
| 2026-04-17 11:19 | 39.10230 | 117.15235 | 21390 ft | 400 kts | 71° |
| 2026-04-17 11:19 | 39.10750 | 117.18770 | 21886 ft | 405 kts | 79° |
| 2026-04-17 11:19 | 39.10968 | 117.22415 | 22255 ft | 412 kts | 84° |
| 2026-04-17 11:20 | 39.10997 | 117.26121 | 22659 ft | 415 kts | 87° |
| 2026-04-17 11:20 | 39.10921 | 117.29850 | 23085 ft | 418 kts | 88° |
| 2026-04-17 11:20 | 39.10789 | 117.33598 | 23484 ft | 421 kts | 89° |
| 2026-04-17 11:20 | 39.10624 | 117.37377 | 23823 ft | 424 kts | 90° |
| 2026-04-17 11:21 | 39.10441 | 117.41179 | 24148 ft | 427 kts | 90° |
| 2026-04-17 11:21 | 39.10248 | 117.45004 | 24479 ft | 430 kts | 90° |
| 2026-04-17 11:21 | 39.10047 | 117.48852 | 24803 ft | 433 kts | 90° |
| 2026-04-17 11:21 | 39.09841 | 117.52733 | 25082 ft | 437 kts | 90° |
| 2026-04-17 11:22 | 39.09631 | 117.56647 | 25430 ft | 439 kts | 90° |
| 2026-04-17 11:22 | 39.09417 | 117.60575 | 25788 ft | 442 kts | 91° |
| 2026-04-17 11:22 | 39.09201 | 117.64530 | 26156 ft | 444 kts | 91° |
| 2026-04-17 11:22 | 39.08981 | 117.68508 | 26520 ft | 447 kts | 91° |
| 2026-04-17 11:23 | 39.08759 | 117.72519 | 26902 ft | 450 kts | 91° |
| 2026-04-17 11:23 | 39.08537 | 117.76546 | 27289 ft | 453 kts | 91° |
| 2026-04-17 11:23 | 39.08317 | 117.80552 | 27695 ft | 456 kts | 91° |
| 2026-04-17 11:23 | 39.08091 | 117.84632 | 28113 ft | 459 kts | 91° |
| 2026-04-17 11:24 | 39.07861 | 117.88752 | 28525 ft | 463 kts | 91° |
| 2026-04-17 11:24 | 39.07629 | 117.92888 | 28966 ft | 466 kts | 91° |
| 2026-04-17 11:24 | 39.07393 | 117.97060 | 29390 ft | 469 kts | 91° |
| 2026-04-17 11:24 | 39.07149 | 118.01266 | 29817 ft | 473 kts | 92° |
| 2026-04-17 11:25 | 39.06737 | 118.05483 | 30213 ft | 478 kts | 97° |
| 2026-04-17 11:25 | 39.06159 | 118.09712 | 30558 ft | 482 kts | 99° |
| 2026-04-17 11:25 | 39.05491 | 118.13953 | 30941 ft | 485 kts | 100° |
| 2026-04-17 11:25 | 39.04786 | 118.18209 | 31339 ft | 488 kts | 100° |
| 2026-04-17 11:26 | 39.04069 | 118.22491 | 31712 ft | 491 kts | 100° |
| 2026-04-17 11:26 | 39.03346 | 118.26856 | 32074 ft | 494 kts | 100° |
| 2026-04-17 11:26 | 39.02646 | 118.31129 | 32425 ft | 496 kts | 100° |
| 2026-04-17 11:26 | 39.01942 | 118.35481 | 32775 ft | 499 kts | 100° |
| 2026-04-17 11:27 | 39.01235 | 118.39872 | 33093 ft | 503 kts | 101° |
| 2026-04-17 11:27 | 39.00525 | 118.44290 | 33387 ft | 506 kts | 101° |
| 2026-04-17 11:27 | 38.99809 | 118.48736 | 33726 ft | 509 kts | 101° |
| 2026-04-17 11:27 | 38.99091 | 118.53205 | 34037 ft | 512 kts | 101° |
| 2026-04-17 11:28 | 38.98366 | 118.57694 | 34291 ft | 515 kts | 101° |
| 2026-04-17 11:28 | 38.97631 | 118.62217 | 34539 ft | 518 kts | 101° |
| 2026-04-17 11:28 | 38.96891 | 118.66746 | 34874 ft | 519 kts | 101° |
| 2026-04-17 11:28 | 38.96147 | 118.71289 | 35161 ft | 521 kts | 102° |
| 2026-04-17 11:29 | 38.95400 | 118.75846 | 35465 ft | 522 kts | 102° |
| 2026-04-17 11:29 | 38.94650 | 118.80408 | 35804 ft | 523 kts | 102° |
| 2026-04-17 11:29 | 38.93895 | 118.84988 | 36120 ft | 524 kts | 102° |
| 2026-04-17 11:29 | 38.93138 | 118.89572 | 36440 ft | 525 kts | 102° |
| 2026-04-17 11:30 | 38.92379 | 118.94156 | 36752 ft | 526 kts | 102° |
| 2026-04-17 11:30 | 38.91615 | 118.98761 | 37021 ft | 528 kts | 102° |
| 2026-04-17 11:30 | 38.90846 | 119.03384 | 37284 ft | 530 kts | 102° |
| 2026-04-17 11:30 | 38.90073 | 119.08015 | 37598 ft | 531 kts | 103° |
| 2026-04-17 11:31 | 38.89298 | 119.12650 | 37906 ft | 531 kts | 103° |
| 2026-04-17 11:31 | 38.88521 | 119.17286 | 38208 ft | 532 kts | 103° |
| 2026-04-17 11:31 | 38.87739 | 119.21936 | 38501 ft | 533 kts | 103° |
| 2026-04-17 11:31 | 38.86961 | 119.26584 | 38666 ft | 531 kts | 102° |
| 2026-04-17 11:32 | 38.85413 | 119.35795 | 38560 ft | 525 kts | 104° |
| 2026-04-17 11:32 | 38.83835 | 119.44898 | 38416 ft | 520 kts | 104° |
| 2026-04-17 11:33 | 38.82273 | 119.53914 | 38290 ft | 515 kts | 104° |
| 2026-04-17 11:33 | 38.80741 | 119.62789 | 38155 ft | 511 kts | 104° |
| 2026-04-17 11:34 | 38.79206 | 119.71653 | 37474 ft | 514 kts | 104° |
| 2026-04-17 11:34 | 38.78375 | 119.76139 | 36831 ft | 520 kts | 109° |
| 2026-04-17 11:34 | 38.77076 | 119.80453 | 36090 ft | 520 kts | 119° |
| 2026-04-17 11:35 | 38.75195 | 119.84411 | 35189 ft | 521 kts | 131° |
| 2026-04-17 11:35 | 38.72767 | 119.87840 | 34300 ft | 521 kts | 139° |
| 2026-04-17 11:35 | 38.70124 | 119.91011 | 33462 ft | 521 kts | 141° |
| 2026-04-17 11:35 | 38.67426 | 119.94101 | 32671 ft | 520 kts | 139° |
| 2026-04-17 11:36 | 38.64954 | 119.97482 | 32010 ft | 520 kts | 132° |
| 2026-04-17 11:36 | 38.62627 | 120.01014 | 31418 ft | 517 kts | 131° |
| 2026-04-17 11:36 | 38.60391 | 120.04526 | 31353 ft | 502 kts | 130° |
| 2026-04-17 11:36 | 38.58227 | 120.07996 | 31362 ft | 498 kts | 130° |
| 2026-04-17 11:37 | 38.54209 | 120.15199 | 31363 ft | 500 kts | 118° |
| 2026-04-17 11:37 | 38.52929 | 120.19321 | 31369 ft | 501 kts | 105° |
| 2026-04-17 11:37 | 38.52040 | 120.23630 | 31366 ft | 501 kts | 103° |
| 2026-04-17 11:38 | 38.50595 | 120.32325 | 31370 ft | 501 kts | 100° |
| 2026-04-17 11:38 | 38.49234 | 120.41051 | 31372 ft | 501 kts | 101° |
| 2026-04-17 11:39 | 38.47822 | 120.49788 | 31372 ft | 503 kts | 101° |
| 2026-04-17 11:39 | 38.46404 | 120.58538 | 31372 ft | 504 kts | 101° |
| 2026-04-17 11:40 | 38.45700 | 120.62898 | 31268 ft | 498 kts | 101° |
| 2026-04-17 11:40 | 38.44998 | 120.67224 | 30602 ft | 498 kts | 101° |
| 2026-04-17 11:40 | 38.44302 | 120.71498 | 29896 ft | 499 kts | 101° |
| 2026-04-17 11:40 | 38.43597 | 120.75821 | 29191 ft | 497 kts | 101° |
| 2026-04-17 11:41 | 38.42893 | 120.80118 | 28554 ft | 494 kts | 100° |
| 2026-04-17 11:41 | 38.42193 | 120.84383 | 27948 ft | 490 kts | 100° |
| 2026-04-17 11:41 | 38.41497 | 120.88616 | 27382 ft | 485 kts | 100° |
| 2026-04-17 11:41 | 38.40806 | 120.92808 | 26845 ft | 481 kts | 100° |
| 2026-04-17 11:42 | 38.40226 | 120.96969 | 26294 ft | 474 kts | 92° |
| 2026-04-17 11:42 | 38.40405 | 121.01114 | 25739 ft | 464 kts | 76° |
| 2026-04-17 11:42 | 38.41103 | 121.05093 | 25237 ft | 457 kts | 72° |
| 2026-04-17 11:42 | 38.41845 | 121.09010 | 24745 ft | 452 kts | 73° |
| 2026-04-17 11:43 | 38.42556 | 121.12888 | 24273 ft | 447 kts | 73° |
| 2026-04-17 11:43 | 38.43239 | 121.16739 | 23776 ft | 443 kts | 73° |
| 2026-04-17 11:43 | 38.43902 | 121.20557 | 23211 ft | 439 kts | 73° |
| 2026-04-17 11:43 | 38.44670 | 121.24293 | 22528 ft | 431 kts | 64° |
| 2026-04-17 11:44 | 38.45943 | 121.27714 | 21937 ft | 424 kts | 58° |
| 2026-04-17 11:44 | 38.47332 | 121.31012 | 21322 ft | 420 kts | 57° |
| 2026-04-17 11:44 | 38.48716 | 121.34283 | 20735 ft | 417 kts | 57° |
| 2026-04-17 11:44 | 38.50080 | 121.37528 | 20228 ft | 412 kts | 58° |
| 2026-04-17 11:45 | 38.51410 | 121.40715 | 19963 ft | 401 kts | 58° |
| 2026-04-17 11:45 | 38.52697 | 121.43811 | 19725 ft | 389 kts | 58° |
| 2026-04-17 11:45 | 38.53948 | 121.46823 | 19525 ft | 378 kts | 58° |
| 2026-04-17 11:45 | 38.55424 | 121.49493 | 19244 ft | 359 kts | 38° |
| 2026-04-17 11:46 | 38.57456 | 121.51126 | 19022 ft | 336 kts | 14° |
| 2026-04-17 11:46 | 38.59694 | 121.51495 | 18734 ft | 319 kts | 352° |
| 2026-04-17 11:46 | 38.61877 | 121.51159 | 18341 ft | 314 kts | 348° |
| 2026-04-17 11:46 | 38.64019 | 121.50801 | 17640 ft | 308 kts | 350° |
| 2026-04-17 11:47 | 38.66145 | 121.50513 | 16795 ft | 306 kts | 351° |
| 2026-04-17 11:47 | 38.68257 | 121.50279 | 15999 ft | 303 kts | 352° |
| 2026-04-17 11:47 | 38.70347 | 121.50078 | 15229 ft | 299 kts | 353° |
| 2026-04-17 11:47 | 38.72410 | 121.49896 | 14470 ft | 295 kts | 354° |
| 2026-04-17 11:48 | 38.74447 | 121.49725 | 13749 ft | 292 kts | 354° |
| 2026-04-17 11:48 | 38.76464 | 121.49560 | 12925 ft | 289 kts | 354° |
| 2026-04-17 11:48 | 38.78425 | 121.49404 | 12491 ft | 274 kts | 355° |
| 2026-04-17 11:48 | 38.80268 | 121.49260 | 12177 ft | 257 kts | 355° |
| 2026-04-17 11:49 | 38.82007 | 121.49123 | 11804 ft | 245 kts | 355° |
| 2026-04-17 11:49 | 38.83693 | 121.48990 | 11272 ft | 241 kts | 355° |
| 2026-04-17 11:49 | 38.85357 | 121.48822 | 10730 ft | 239 kts | 351° |
| 2026-04-17 11:49 | 38.86890 | 121.48065 | 10142 ft | 239 kts | 324° |
| 2026-04-17 11:50 | 38.87881 | 121.46365 | 9530 ft | 244 kts | 291° |
| 2026-04-17 11:50 | 38.88195 | 121.44223 | 8968 ft | 245 kts | 279° |
| 2026-04-17 11:50 | 38.88341 | 121.42055 | 8420 ft | 243 kts | 277° |
| 2026-04-17 11:50 | 38.88476 | 121.39908 | 7913 ft | 240 kts | 278° |
| 2026-04-17 11:51 | 38.88619 | 121.37789 | 7392 ft | 237 kts | 278° |
| 2026-04-17 11:51 | 38.88766 | 121.35692 | 6881 ft | 235 kts | 278° |
| 2026-04-17 11:51 | 38.88913 | 121.33646 | 6394 ft | 232 kts | 278° |
| 2026-04-17 11:51 | 38.89062 | 121.31596 | 5877 ft | 230 kts | 278° |
| 2026-04-17 11:52 | 38.89213 | 121.29558 | 5347 ft | 229 kts | 278° |
| 2026-04-17 11:52 | 38.89470 | 121.27565 | 4843 ft | 225 kts | 291° |
| 2026-04-17 11:52 | 38.90316 | 121.25973 | 4554 ft | 215 kts | 321° |
| 2026-04-17 11:52 | 38.91677 | 121.25225 | 4361 ft | 217 kts | 352° |
| 2026-04-17 11:53 | 38.93192 | 121.25253 | 4204 ft | 219 kts | 3° |
| 2026-04-17 11:53 | 38.94710 | 121.25461 | 4026 ft | 219 kts | 4° |
| 2026-04-17 11:53 | 38.96168 | 121.25927 | 3891 ft | 215 kts | 23° |
| 2026-04-17 11:53 | 38.97218 | 121.27171 | 3817 ft | 207 kts | 58° |
| 2026-04-17 11:54 | 38.97709 | 121.28736 | 3733 ft | 193 kts | 77° |
| 2026-04-17 11:54 | 38.97733 | 121.30396 | 3736 ft | 181 kts | 94° |
| 2026-04-17 11:54 | 38.97614 | 121.31954 | 3552 ft | 170 kts | 94° |
| 2026-04-17 11:54 | 38.97530 | 121.33436 | 3295 ft | 163 kts | 92° |
| 2026-04-17 11:55 | 38.97479 | 121.34868 | 3043 ft | 158 kts | 93° |
| 2026-04-17 11:55 | 38.97421 | 121.36252 | 2796 ft | 153 kts | 94° |
| 2026-04-17 11:55 | 38.97366 | 121.37611 | 2578 ft | 152 kts | 94° |
| 2026-04-17 11:55 | 38.97310 | 121.38971 | 2353 ft | 152 kts | 95° |
| 2026-04-17 11:56 | 38.97255 | 121.40320 | 2123 ft | 151 kts | 95° |
| 2026-04-17 11:56 | 38.97200 | 121.41670 | 1901 ft | 153 kts | 96° |
| 2026-04-17 11:56 | 38.97164 | 121.42576 | 1762 ft | 153 kts | 96° |
| 2026-04-17 11:56 | 38.97149 | 121.43925 | 1471 ft | 150 kts | 93° |
| 2026-04-17 11:57 | 38.97146 | 121.45250 | 1178 ft | 147 kts | 93° |
| 2026-04-17 11:57 | 38.97126 | 121.46545 | 945 ft | 142 kts | 96° |
| 2026-04-17 11:57 | 38.97033 | 121.47781 | 761 ft | 136 kts | 97° |
| 2026-04-17 11:57 | 38.96947 | 121.48984 | 616 ft | 134 kts | 98° |
| 2026-04-17 11:58 | 38.96856 | 121.50176 | 414 ft | 133 kts | 96° |
| 2026-04-17 11:58 | 38.96765 | 121.51356 | 274 ft | 132 kts | 96° |
| 2026-04-17 11:58 | 38.96674 | 121.52534 | 136 ft | 130 kts | 97° |
| 2026-04-17 11:58 | 38.96590 | 121.53622 | 114 ft | 114 kts | 96° |
| 2026-04-17 11:59 | 38.96529 | 121.54427 | 108 ft | 54 kts | 95° |
| 2026-04-17 11:59 | 38.96421 | 121.54774 | 104 ft | 40 kts | 124° |
| 2026-04-17 11:59 | 38.96285 | 121.55062 | 104 ft | 37 kts | 103° |
| 2026-04-17 11:59 | 38.96256 | 121.55383 | 105 ft | 31 kts | 95° |
| 2026-04-17 12:00 | 38.96242 | 121.55654 | 101 ft | 18 kts | 78° |
| 2026-04-17 12:00 | 38.96320 | 121.55720 | 102 ft | 0 kts | 7° |